Mangohick, Virginia
Current Conditions -  °F | °C
As of 8:54 AM on Friday 24 Oct 2014 (Local Time) from KOFP Reporting Station
Clear Clear  
Wind Chill: 52°   Ceiling: Unl
Heat Index: 52°   Visibility: 10mi
Dew Point: 44°   Wind: 5mph
Humidity: 74%   Direction: 310°NW
Pressure: 30.02"   Gusts: NA
Location:  37.7857°N, 77.3107°W
Report Text: KOFP 241254Z AUTO 31004KT 10SM CLR 11/07 A3002 RMK AO2 SLP166 T01110067 $
Loading
Personal Weather Stations






























Interactive Weather Map
Tropical Storm Tracking
New forecast layout! Learn more

10-Day Weather Forecast

Advertisements
Track Severe Weather on mobile